sensor_id;sensor_type;location;lat;lon;timestamp;pressure;altitude;pressure_sealevel;temperature;humidity
54870;BME280;40756;-37.950;145.008;2023-03-20T00:02:27;102611.90;;;16.72;35.39
54870;BME280;40756;-37.950;145.008;2023-03-20T00:04:56;102615.60;;;16.14;34.45
54870;BME280;40756;-37.950;145.008;2023-03-20T00:07:26;102611.16;;;15.86;34.67
54870;BME280;40756;-37.950;145.008;2023-03-20T00:09:55;102615.29;;;16.28;35.07
54870;BME280;40756;-37.950;145.008;2023-03-20T00:12:25;102622.08;;;16.39;33.76
54870;BME280;40756;-37.950;145.008;2023-03-20T00:14:54;102616.15;;;16.87;33.04
54870;BME280;40756;-37.950;145.008;2023-03-20T00:17:24;102624.08;;;16.64;34.18
54870;BME280;40756;-37.950;145.008;2023-03-20T00:19:53;102613.93;;;17.13;33.14
54870;BME280;40756;-37.950;145.008;2023-03-20T00:22:23;102619.18;;;16.98;33.18
54870;BME280;40756;-37.950;145.008;2023-03-20T00:24:52;102626.25;;;15.53;34.13
54870;BME280;40756;-37.950;145.008;2023-03-20T00:27:22;102612.02;;;16.67;33.51
54870;BME280;40756;-37.950;145.008;2023-03-20T00:29:52;102607.72;;;16.87;33.36
54870;BME280;40756;-37.950;145.008;2023-03-20T00:32:22;102604.56;;;17.05;32.65
54870;BME280;40756;-37.950;145.008;2023-03-20T00:34:51;102608.72;;;17.17;32.53
54870;BME280;40756;-37.950;145.008;2023-03-20T00:37:21;102608.35;;;17.01;33.17
54870;BME280;40756;-37.950;145.008;2023-03-20T00:39:50;102608.05;;;16.91;33.13
54870;BME280;40756;-37.950;145.008;2023-03-20T00:42:21;102598.53;;;17.23;32.91
54870;BME280;40756;-37.950;145.008;2023-03-20T00:44:54;102598.28;;;17.13;33.26
54870;BME280;40756;-37.950;145.008;2023-03-20T00:47:25;102596.75;;;17.01;32.76
54870;BME280;40756;-37.950;145.008;2023-03-20T00:49:55;102587.85;;;17.66;32.32
54870;BME280;40756;-37.950;145.008;2023-03-20T00:52:25;102585.93;;;17.04;32.26
54870;BME280;40756;-37.950;145.008;2023-03-20T00:54:54;102577.88;;;16.95;32.39
54870;BME280;40756;-37.950;145.008;2023-03-20T00:57:25;102579.14;;;17.33;32.37
54870;BME280;40756;-37.950;145.008;2023-03-20T00:59:58;102577.34;;;18.52;30.88
54870;BME280;40756;-37.950;145.008;2023-03-20T01:02:29;102574.05;;;17.65;31.63
54870;BME280;40756;-37.950;145.008;2023-03-20T01:05:00;102564.19;;;18.10;30.93
54870;BME280;40756;-37.950;145.008;2023-03-20T01:07:29;102568.99;;;18.14;31.78
54870;BME280;40756;-37.950;145.008;2023-03-20T01:09:59;102563.64;;;17.84;32.25
54870;BME280;40756;-37.950;145.008;2023-03-20T01:12:28;102565.92;;;17.92;31.22
54870;BME280;40756;-37.950;145.008;2023-03-20T01:14:59;102572.18;;;18.15;31.83
54870;BME280;40756;-37.950;145.008;2023-03-20T01:17:29;102572.70;;;17.86;33.45
54870;BME280;40756;-37.950;145.008;2023-03-20T01:19:58;102557.40;;;17.31;33.96
54870;BME280;40756;-37.950;145.008;2023-03-20T01:22:27;102548.36;;;18.11;33.46
54870;BME280;40756;-37.950;145.008;2023-03-20T01:24:57;102546.49;;;17.80;32.64
54870;BME280;40756;-37.950;145.008;2023-03-20T01:27:27;102549.47;;;18.77;32.16
54870;BME280;40756;-37.950;145.008;2023-03-20T01:29:58;102555.17;;;18.14;31.35
54870;BME280;40756;-37.950;145.008;2023-03-20T01:32:27;102549.19;;;18.53;31.81
54870;BME280;40756;-37.950;145.008;2023-03-20T01:34:57;102534.82;;;18.53;31.26
54870;BME280;40756;-37.950;145.008;2023-03-20T01:37:28;102531.03;;;18.35;30.92
54870;BME280;40756;-37.950;145.008;2023-03-20T01:39:57;102532.94;;;18.67;31.59
54870;BME280;40756;-37.950;145.008;2023-03-20T01:42:26;102517.96;;;19.41;31.78
54870;BME280;40756;-37.950;145.008;2023-03-20T01:44:56;102534.85;;;17.74;32.64
54870;BME280;40756;-37.950;145.008;2023-03-20T01:47:25;102523.81;;;19.41;31.55
54870;BME280;40756;-37.950;145.008;2023-03-20T01:50:23;102523.04;;;18.25;32.25
54870;BME280;40756;-37.950;145.008;2023-03-20T01:52:57;102516.31;;;19.23;32.06
54870;BME280;40756;-37.950;145.008;2023-03-20T01:55:29;102528.29;;;18.46;31.89
54870;BME280;40756;-37.950;145.008;2023-03-20T01:58:02;102517.00;;;18.40;31.79
54870;BME280;40756;-37.950;145.008;2023-03-20T02:00:32;102524.17;;;19.30;31.25
54870;BME280;40756;-37.950;145.008;2023-03-20T02:03:02;102527.59;;;18.27;30.76
54870;BME280;40756;-37.950;145.008;2023-03-20T02:05:33;102515.34;;;18.52;30.47
54870;BME280;40756;-37.950;145.008;2023-03-20T02:08:15;102510.10;;;19.62;29.48
54870;BME280;40756;-37.950;145.008;2023-03-20T02:10:47;102503.54;;;19.97;28.84
54870;BME280;40756;-37.950;145.008;2023-03-20T02:13:17;102503.95;;;18.99;29.79
54870;BME280;40756;-37.950;145.008;2023-03-20T02:15:59;102500.43;;;19.36;29.40
54870;BME280;40756;-37.950;145.008;2023-03-20T02:18:30;102495.26;;;19.97;29.19
54870;BME280;40756;-37.950;145.008;2023-03-20T02:22:10;102493.68;;;19.62;28.58
54870;BME280;40756;-37.950;145.008;2023-03-20T02:25:02;102488.88;;;19.80;29.39
54870;BME280;40756;-37.950;145.008;2023-03-20T02:27:49;102482.02;;;20.20;28.63
54870;BME280;40756;-37.950;145.008;2023-03-20T02:30:47;102482.92;;;19.82;28.88
54870;BME280;40756;-37.950;145.008;2023-03-20T02:34:23;102492.18;;;20.75;27.97
54870;BME280;40756;-37.950;145.008;2023-03-20T02:37:30;102486.60;;;20.55;28.37
54870;BME280;40756;-37.950;145.008;2023-03-20T02:40:11;102478.87;;;20.56;28.21
54870;BME280;40756;-37.950;145.008;2023-03-20T02:42:47;102475.49;;;21.10;28.06
54870;BME280;40756;-37.950;145.008;2023-03-20T02:45:25;102475.38;;;20.94;28.25
54870;BME280;40756;-37.950;145.008;2023-03-20T02:48:01;102471.06;;;21.45;28.36
54870;BME280;40756;-37.950;145.008;2023-03-20T02:50:39;102470.59;;;21.39;27.06
54870;BME280;40756;-37.950;145.008;2023-03-20T02:53:21;102479.88;;;20.54;27.24
54870;BME280;40756;-37.950;145.008;2023-03-20T02:56:01;102473.82;;;21.64;26.82
54870;BME280;40756;-37.950;145.008;2023-03-20T02:58:38;102470.22;;;20.80;27.23
54870;BME280;40756;-37.950;145.008;2023-03-20T03:01:12;102476.99;;;20.81;27.90
54870;BME280;40756;-37.950;145.008;2023-03-20T03:03:47;102471.06;;;21.39;27.03
54870;BME280;40756;-37.950;145.008;2023-03-20T03:06:23;102463.88;;;21.63;27.75
54870;BME280;40756;-37.950;145.008;2023-03-20T03:08:57;102462.39;;;21.20;27.16
54870;BME280;40756;-37.950;145.008;2023-03-20T03:11:28;102451.12;;;22.45;25.96
54870;BME280;40756;-37.950;145.008;2023-03-20T03:13:59;102459.36;;;21.79;26.34
54870;BME280;40756;-37.950;145.008;2023-03-20T03:16:31;102460.32;;;22.08;26.33
54870;BME280;40756;-37.950;145.008;2023-03-20T03:19:06;102451.82;;;21.98;26.24
54870;BME280;40756;-37.950;145.008;2023-03-20T03:21:38;102453.09;;;22.53;25.13
54870;BME280;40756;-37.950;145.008;2023-03-20T03:24:26;102448.57;;;21.36;26.73
54870;BME280;40756;-37.950;145.008;2023-03-20T03:26:59;102435.01;;;21.66;27.51
54870;BME280;40756;-37.950;145.008;2023-03-20T03:29:32;102436.26;;;21.97;27.95
54870;BME280;40756;-37.950;145.008;2023-03-20T03:32:20;102441.52;;;22.61;27.44
54870;BME280;40756;-37.950;145.008;2023-03-20T03:34:51;102443.07;;;21.62;27.51
54870;BME280;40756;-37.950;145.008;2023-03-20T03:37:28;102436.79;;;22.26;27.45
54870;BME280;40756;-37.950;145.008;2023-03-20T03:40:06;102439.00;;;22.10;27.60
54870;BME280;40756;-37.950;145.008;2023-03-20T03:42:42;102431.88;;;22.00;27.84
54870;BME280;40756;-37.950;145.008;2023-03-20T03:45:22;102428.16;;;22.16;27.40
54870;BME280;40756;-37.950;145.008;2023-03-20T03:47:58;102434.20;;;21.31;28.82
54870;BME280;40756;-37.950;145.008;2023-03-20T03:50:32;102431.89;;;21.81;28.84
54870;BME280;40756;-37.950;145.008;2023-03-20T03:53:09;102424.20;;;22.46;28.83
54870;BME280;40756;-37.950;145.008;2023-03-20T03:55:42;102417.09;;;22.34;28.72
54870;BME280;40756;-37.950;145.008;2023-03-20T03:58:17;102418.88;;;22.65;27.82
54870;BME280;40756;-37.950;145.008;2023-03-20T04:00:50;102420.11;;;21.11;29.09
54870;BME280;40756;-37.950;145.008;2023-03-20T04:03:22;102416.88;;;21.41;29.25
54870;BME280;40756;-37.950;145.008;2023-03-20T04:05:55;102415.13;;;21.66;28.51
54870;BME280;40756;-37.950;145.008;2023-03-20T04:08:26;102413.39;;;21.63;28.38
54870;BME280;40756;-37.950;145.008;2023-03-20T04:10:55;102414.64;;;21.71;28.45
54870;BME280;40756;-37.950;145.008;2023-03-20T04:13:25;102412.72;;;21.81;28.85
54870;BME280;40756;-37.950;145.008;2023-03-20T04:15:54;102411.33;;;21.66;28.43
54870;BME280;40756;-37.950;145.008;2023-03-20T04:18:24;102410.57;;;21.44;29.99
54870;BME280;40756;-37.950;145.008;2023-03-20T04:20:53;102400.72;;;21.71;29.30
54870;BME280;40756;-37.950;145.008;2023-03-20T04:23:22;102401.42;;;21.21;28.72
54870;BME280;40756;-37.950;145.008;2023-03-20T04:25:52;102395.36;;;22.38;27.98
54870;BME280;40756;-37.950;145.008;2023-03-20T04:28:21;102392.95;;;22.69;27.88
54870;BME280;40756;-37.950;145.008;2023-03-20T04:30:53;102394.85;;;23.31;27.37
54870;BME280;40756;-37.950;145.008;2023-03-20T04:33:25;102387.44;;;21.86;27.84
54870;BME280;40756;-37.950;145.008;2023-03-20T04:35:55;102375.88;;;22.20;27.47
54870;BME280;40756;-37.950;145.008;2023-03-20T04:38:24;102374.54;;;22.05;28.23
54870;BME280;40756;-37.950;145.008;2023-03-20T04:40:53;102377.70;;;22.58;27.63
54870;BME280;40756;-37.950;145.008;2023-03-20T04:43:23;102387.53;;;22.05;27.38
54870;BME280;40756;-37.950;145.008;2023-03-20T04:45:52;102386.16;;;21.51;28.33
54870;BME280;40756;-37.950;145.008;2023-03-20T04:48:22;102383.00;;;22.72;27.83
54870;BME280;40756;-37.950;145.008;2023-03-20T04:50:52;102369.26;;;22.66;27.47
54870;BME280;40756;-37.950;145.008;2023-03-20T04:53:21;102366.82;;;22.09;28.11
54870;BME280;40756;-37.950;145.008;2023-03-20T04:55:51;102362.18;;;22.15;27.97
54870;BME280;40756;-37.950;145.008;2023-03-20T04:58:20;102356.46;;;22.16;27.39
54870;BME280;40756;-37.950;145.008;2023-03-20T05:00:49;102355.29;;;23.12;27.00
54870;BME280;40756;-37.950;145.008;2023-03-20T05:03:19;102358.87;;;22.53;27.80
54870;BME280;40756;-37.950;145.008;2023-03-20T05:05:48;102348.39;;;22.69;27.75
54870;BME280;40756;-37.950;145.008;2023-03-20T05:08:18;102341.25;;;21.86;28.02
54870;BME280;40756;-37.950;145.008;2023-03-20T05:10:47;102341.72;;;21.45;28.63
54870;BME280;40756;-37.950;145.008;2023-03-20T05:13:16;102350.99;;;21.31;28.99
54870;BME280;40756;-37.950;145.008;2023-03-20T05:15:46;102340.44;;;22.22;27.88
54870;BME280;40756;-37.950;145.008;2023-03-20T05:18:15;102339.76;;;22.44;28.33
54870;BME280;40756;-37.950;145.008;2023-03-20T05:20:45;102339.39;;;22.34;29.02
54870;BME280;40756;-37.950;145.008;2023-03-20T05:23:14;102333.84;;;20.90;28.59
54870;BME280;40756;-37.950;145.008;2023-03-20T05:25:44;102334.50;;;22.94;27.89
54870;BME280;40756;-37.950;145.008;2023-03-20T05:28:14;102332.03;;;23.66;27.68
54870;BME280;40756;-37.950;145.008;2023-03-20T05:30:43;102331.66;;;23.06;27.49
54870;BME280;40756;-37.950;145.008;2023-03-20T05:33:13;102333.06;;;23.00;26.74
54870;BME280;40756;-37.950;145.008;2023-03-20T05:35:43;102329.20;;;22.48;28.80
54870;BME280;40756;-37.950;145.008;2023-03-20T05:38:12;102327.45;;;23.04;28.48
54870;BME280;40756;-37.950;145.008;2023-03-20T05:40:42;102320.96;;;23.38;27.69
54870;BME280;40756;-37.950;145.008;2023-03-20T05:43:11;102311.21;;;22.26;28.19
54870;BME280;40756;-37.950;145.008;2023-03-20T05:45:42;102305.18;;;21.48;30.34
54870;BME280;40756;-37.950;145.008;2023-03-20T05:48:11;102313.59;;;21.77;30.75
54870;BME280;40756;-37.950;145.008;2023-03-20T05:50:41;102309.42;;;21.31;32.29
54870;BME280;40756;-37.950;145.008;2023-03-20T05:53:10;102307.11;;;21.54;31.82
54870;BME280;40756;-37.950;145.008;2023-03-20T05:55:40;102306.91;;;20.65;32.66
54870;BME280;40756;-37.950;145.008;2023-03-20T05:58:09;102308.98;;;20.76;33.63
54870;BME280;40756;-37.950;145.008;2023-03-20T06:00:39;102317.88;;;20.55;34.61
54870;BME280;40756;-37.950;145.008;2023-03-20T06:03:08;102317.06;;;20.49;35.04
54870;BME280;40756;-37.950;145.008;2023-03-20T06:05:38;102312.51;;;19.78;35.76
54870;BME280;40756;-37.950;145.008;2023-03-20T06:08:07;102305.64;;;21.07;34.70
54870;BME280;40756;-37.950;145.008;2023-03-20T06:10:37;102320.46;;;20.23;34.62
54870;BME280;40756;-37.950;145.008;2023-03-20T06:13:06;102321.37;;;20.69;34.62
54870;BME280;40756;-37.950;145.008;2023-03-20T06:15:36;102329.62;;;20.65;35.09
54870;BME280;40756;-37.950;145.008;2023-03-20T06:18:05;102330.17;;;19.10;37.20
54870;BME280;40756;-37.950;145.008;2023-03-20T06:20:34;102336.83;;;20.70;35.18
54870;BME280;40756;-37.950;145.008;2023-03-20T06:23:04;102341.54;;;19.63;37.37
54870;BME280;40756;-37.950;145.008;2023-03-20T06:25:34;102337.14;;;19.52;37.74
54870;BME280;40756;-37.950;145.008;2023-03-20T06:28:03;102331.35;;;20.11;37.05
54870;BME280;40756;-37.950;145.008;2023-03-20T06:30:33;102328.97;;;20.29;36.51
54870;BME280;40756;-37.950;145.008;2023-03-20T06:33:04;102327.72;;;20.07;36.69
54870;BME280;40756;-37.950;145.008;2023-03-20T06:35:34;102339.15;;;20.73;35.44
54870;BME280;40756;-37.950;145.008;2023-03-20T06:38:04;102343.86;;;19.93;36.51
54870;BME280;40756;-37.950;145.008;2023-03-20T06:40:34;102337.75;;;19.36;37.11
54870;BME280;40756;-37.950;145.008;2023-03-20T06:43:04;102328.34;;;19.85;37.36
54870;BME280;40756;-37.950;145.008;2023-03-20T06:45:33;102328.01;;;19.07;38.81
54870;BME280;40756;-37.950;145.008;2023-03-20T06:48:06;102317.48;;;18.91;38.48
54870;BME280;40756;-37.950;145.008;2023-03-20T06:50:36;102315.82;;;19.68;38.05
54870;BME280;40756;-37.950;145.008;2023-03-20T06:53:05;102318.68;;;18.72;38.64
54870;BME280;40756;-37.950;145.008;2023-03-20T06:55:35;102322.40;;;18.63;39.24
54870;BME280;40756;-37.950;145.008;2023-03-20T06:58:05;102320.90;;;18.96;39.36
54870;BME280;40756;-37.950;145.008;2023-03-20T07:00:35;102322.63;;;18.59;39.72
54870;BME280;40756;-37.950;145.008;2023-03-20T07:03:05;102329.26;;;18.76;38.90
54870;BME280;40756;-37.950;145.008;2023-03-20T07:05:35;102334.29;;;18.94;39.27
54870;BME280;40756;-37.950;145.008;2023-03-20T07:08:05;102327.86;;;19.31;40.29
54870;BME280;40756;-37.950;145.008;2023-03-20T07:10:34;102325.87;;;18.51;39.71
54870;BME280;40756;-37.950;145.008;2023-03-20T07:13:04;102331.44;;;19.20;39.12
54870;BME280;40756;-37.950;145.008;2023-03-20T07:15:34;102332.16;;;19.01;39.79
54870;BME280;40756;-37.950;145.008;2023-03-20T07:18:03;102336.83;;;18.93;40.37
54870;BME280;40756;-37.950;145.008;2023-03-20T07:20:33;102336.02;;;19.29;39.56
54870;BME280;40756;-37.950;145.008;2023-03-20T07:23:02;102337.91;;;18.35;40.85
54870;BME280;40756;-37.950;145.008;2023-03-20T07:25:32;102346.64;;;19.02;40.42
54870;BME280;40756;-37.950;145.008;2023-03-20T07:28:01;102350.45;;;19.11;39.82
54870;BME280;40756;-37.950;145.008;2023-03-20T07:30:32;102350.13;;;18.90;39.38
54870;BME280;40756;-37.950;145.008;2023-03-20T07:33:01;102346.54;;;18.43;39.79
54870;BME280;40756;-37.950;145.008;2023-03-20T07:35:31;102343.00;;;17.84;40.42
54870;BME280;40756;-37.950;145.008;2023-03-20T07:38:00;102347.28;;;19.34;39.06
54870;BME280;40756;-37.950;145.008;2023-03-20T07:40:30;102344.28;;;18.89;40.54
54870;BME280;40756;-37.950;145.008;2023-03-20T07:43:00;102344.95;;;19.46;39.86
54870;BME280;40756;-37.950;145.008;2023-03-20T07:45:29;102339.60;;;18.94;40.00
54870;BME280;40756;-37.950;145.008;2023-03-20T07:47:59;102345.62;;;19.38;39.19
54870;BME280;40756;-37.950;145.008;2023-03-20T07:50:29;102340.95;;;18.64;40.91
54870;BME280;40756;-37.950;145.008;2023-03-20T07:52:58;102339.00;;;18.92;40.69
54870;BME280;40756;-37.950;145.008;2023-03-20T07:55:28;102335.18;;;19.06;40.70
54870;BME280;40756;-37.950;145.008;2023-03-20T07:57:57;102331.97;;;18.95;40.39
54870;BME280;40756;-37.950;145.008;2023-03-20T08:00:27;102337.50;;;18.64;40.13
54870;BME280;40756;-37.950;145.008;2023-03-20T08:02:56;102338.59;;;18.81;40.24
54870;BME280;40756;-37.950;145.008;2023-03-20T08:05:26;102335.47;;;19.69;39.36
54870;BME280;40756;-37.950;145.008;2023-03-20T08:07:55;102330.76;;;19.61;38.76
54870;BME280;40756;-37.950;145.008;2023-03-20T08:10:25;102327.00;;;19.60;39.11
54870;BME280;40756;-37.950;145.008;2023-03-20T08:12:54;102327.90;;;19.83;37.98
54870;BME280;40756;-37.950;145.008;2023-03-20T08:15:24;102336.15;;;19.38;38.39
54870;BME280;40756;-37.950;145.008;2023-03-20T08:17:54;102336.62;;;19.83;38.05
54870;BME280;40756;-37.950;145.008;2023-03-20T08:20:23;102341.41;;;19.41;34.04
54870;BME280;40756;-37.950;145.008;2023-03-20T08:22:53;102342.29;;;19.57;32.55
54870;BME280;40756;-37.950;145.008;2023-03-20T08:25:22;102354.68;;;19.21;30.75
54870;BME280;40756;-37.950;145.008;2023-03-20T08:27:52;102352.59;;;19.53;31.36
54870;BME280;40756;-37.950;145.008;2023-03-20T08:30:21;102356.34;;;19.77;30.70
54870;BME280;40756;-37.950;145.008;2023-03-20T08:32:51;102356.41;;;19.21;30.36
54870;BME280;40756;-37.950;145.008;2023-03-20T08:35:21;102363.46;;;19.36;31.43
54870;BME280;40756;-37.950;145.008;2023-03-20T08:37:50;102362.45;;;18.94;34.20
54870;BME280;40756;-37.950;145.008;2023-03-20T08:40:20;102357.74;;;19.19;32.68
54870;BME280;40756;-37.950;145.008;2023-03-20T08:42:50;102352.28;;;18.92;31.28
54870;BME280;40756;-37.950;145.008;2023-03-20T08:45:20;102359.49;;;19.14;31.49
54870;BME280;40756;-37.950;145.008;2023-03-20T08:47:49;102364.44;;;19.32;31.32
54870;BME280;40756;-37.950;145.008;2023-03-20T08:50:19;102357.60;;;19.15;31.65
54870;BME280;40756;-37.950;145.008;2023-03-20T08:52:48;102360.22;;;18.69;32.06
54870;BME280;40756;-37.950;145.008;2023-03-20T08:55:18;102353.62;;;18.60;32.32
54870;BME280;40756;-37.950;145.008;2023-03-20T08:57:47;102356.17;;;18.40;32.10
54870;BME280;40756;-37.950;145.008;2023-03-20T09:00:18;102356.81;;;18.20;32.42
54870;BME280;40756;-37.950;145.008;2023-03-20T09:02:48;102359.51;;;18.58;32.11
54870;BME280;40756;-37.950;145.008;2023-03-20T09:05:18;102368.92;;;18.18;32.44
54870;BME280;40756;-37.950;145.008;2023-03-20T09:07:47;102370.67;;;18.64;31.97
54870;BME280;40756;-37.950;145.008;2023-03-20T09:10:17;102373.34;;;18.87;31.92
54870;BME280;40756;-37.950;145.008;2023-03-20T09:12:46;102369.54;;;18.00;32.84
54870;BME280;40756;-37.950;145.008;2023-03-20T09:15:16;102372.13;;;18.20;32.33
54870;BME280;40756;-37.950;145.008;2023-03-20T09:17:45;102370.92;;;18.03;32.58
54870;BME280;40756;-37.950;145.008;2023-03-20T09:20:15;102369.01;;;17.91;32.80
54870;BME280;40756;-37.950;145.008;2023-03-20T09:22:45;102375.02;;;18.23;32.74
54870;BME280;40756;-37.950;145.008;2023-03-20T09:25:14;102382.58;;;18.06;32.99
54870;BME280;40756;-37.950;145.008;2023-03-20T09:27:44;102385.03;;;18.00;34.18
54870;BME280;40756;-37.950;145.008;2023-03-20T09:30:14;102396.90;;;18.25;33.73
54870;BME280;40756;-37.950;145.008;2023-03-20T09:32:44;102391.68;;;17.63;33.39
54870;BME280;40756;-37.950;145.008;2023-03-20T09:35:13;102390.30;;;18.11;33.32
54870;BME280;40756;-37.950;145.008;2023-03-20T09:37:43;102394.44;;;17.10;34.09
54870;BME280;40756;-37.950;145.008;2023-03-20T09:40:24;102393.48;;;17.69;33.55
54870;BME280;40756;-37.950;145.008;2023-03-20T09:43:03;102389.88;;;18.12;33.24
54870;BME280;40756;-37.950;145.008;2023-03-20T09:45:42;102392.60;;;17.56;33.50
54870;BME280;40756;-37.950;145.008;2023-03-20T09:48:22;102397.08;;;17.68;33.28
54870;BME280;40756;-37.950;145.008;2023-03-20T09:51:01;102392.32;;;17.61;33.18
54870;BME280;40756;-37.950;145.008;2023-03-20T09:53:38;102396.18;;;17.48;33.13
54870;BME280;40756;-37.950;145.008;2023-03-20T09:56:14;102394.92;;;17.70;33.07
54870;BME280;40756;-37.950;145.008;2023-03-20T09:58:52;102405.31;;;17.42;33.22
54870;BME280;40756;-37.950;145.008;2023-03-20T10:01:26;102405.29;;;17.65;33.20
54870;BME280;40756;-37.950;145.008;2023-03-20T10:04:02;102406.21;;;16.22;34.80
54870;BME280;40756;-37.950;145.008;2023-03-20T10:06:35;102406.86;;;16.77;35.10
54870;BME280;40756;-37.950;145.008;2023-03-20T10:09:14;102414.70;;;17.52;33.79
54870;BME280;40756;-37.950;145.008;2023-03-20T10:11:55;102404.55;;;17.05;34.98
54870;BME280;40756;-37.950;145.008;2023-03-20T10:14:34;102405.68;;;17.29;34.92
54870;BME280;40756;-37.950;145.008;2023-03-20T10:17:19;102405.67;;;17.41;35.18
54870;BME280;40756;-37.950;145.008;2023-03-20T10:19:57;102407.60;;;16.64;35.84
54870;BME280;40756;-37.950;145.008;2023-03-20T10:22:31;102407.33;;;16.67;36.17
54870;BME280;40756;-37.950;145.008;2023-03-20T10:25:05;102417.55;;;17.01;36.24
54870;BME280;40756;-37.950;145.008;2023-03-20T10:27:39;102420.07;;;16.67;36.29
54870;BME280;40756;-37.950;145.008;2023-03-20T10:30:30;102425.23;;;16.35;36.97
54870;BME280;40756;-37.950;145.008;2023-03-20T10:33:11;102422.57;;;16.80;37.63
54870;BME280;40756;-37.950;145.008;2023-03-20T10:35:47;102423.94;;;16.98;37.33
54870;BME280;40756;-37.950;145.008;2023-03-20T10:38:28;102417.91;;;16.51;37.89
54870;BME280;40756;-37.950;145.008;2023-03-20T10:41:01;102425.90;;;16.34;38.58
54870;BME280;40756;-37.950;145.008;2023-03-20T10:43:35;102422.34;;;16.68;38.20
54870;BME280;40756;-37.950;145.008;2023-03-20T10:46:08;102421.43;;;16.86;38.11
54870;BME280;40756;-37.950;145.008;2023-03-20T10:48:44;102426.59;;;16.47;39.27
54870;BME280;40756;-37.950;145.008;2023-03-20T10:51:19;102424.57;;;16.36;39.37
54870;BME280;40756;-37.950;145.008;2023-03-20T10:53:53;102417.10;;;17.00;39.07
54870;BME280;40756;-37.950;145.008;2023-03-20T10:56:30;102425.51;;;16.02;40.19
54870;BME280;40756;-37.950;145.008;2023-03-20T10:59:06;102416.97;;;16.05;41.36
54870;BME280;40756;-37.950;145.008;2023-03-20T11:01:37;102419.81;;;15.94;41.24
54870;BME280;40756;-37.950;145.008;2023-03-20T11:04:07;102415.46;;;16.39;40.73
54870;BME280;40756;-37.950;145.008;2023-03-20T11:06:43;102413.71;;;16.02;41.79
54870;BME280;40756;-37.950;145.008;2023-03-20T11:09:19;102410.38;;;16.27;41.59
54870;BME280;40756;-37.950;145.008;2023-03-20T11:11:54;102407.38;;;15.75;42.32
54870;BME280;40756;-37.950;145.008;2023-03-20T11:14:27;102407.78;;;15.79;42.65
54870;BME280;40756;-37.950;145.008;2023-03-20T11:17:01;102410.71;;;16.10;42.29
54870;BME280;40756;-37.950;145.008;2023-03-20T11:19:35;102404.99;;;16.46;41.70
54870;BME280;40756;-37.950;145.008;2023-03-20T11:22:12;102405.25;;;16.10;42.02
54870;BME280;40756;-37.950;145.008;2023-03-20T11:24:53;102399.81;;;16.64;41.68
54870;BME280;40756;-37.950;145.008;2023-03-20T11:27:27;102408.36;;;15.73;43.28
54870;BME280;40756;-37.950;145.008;2023-03-20T11:29:59;102407.59;;;16.29;42.32
54870;BME280;40756;-37.950;145.008;2023-03-20T11:32:32;102401.96;;;16.14;42.55
54870;BME280;40756;-37.950;145.008;2023-03-20T11:35:17;102396.52;;;15.61;43.29
54870;BME280;40756;-37.950;145.008;2023-03-20T11:37:49;102391.46;;;16.02;42.66
54870;BME280;40756;-37.950;145.008;2023-03-20T11:40:25;102388.48;;;15.60;43.70
54870;BME280;40756;-37.950;145.008;2023-03-20T11:43:10;102387.12;;;16.02;43.17
54870;BME280;40756;-37.950;145.008;2023-03-20T11:45:42;102383.30;;;14.59;46.01
54870;BME280;40756;-37.950;145.008;2023-03-20T11:48:19;102383.05;;;14.43;46.02
54870;BME280;40756;-37.950;145.008;2023-03-20T11:50:56;102376.81;;;15.57;44.77
54870;BME280;40756;-37.950;145.008;2023-03-20T11:53:31;102371.91;;;15.79;44.40
54870;BME280;40756;-37.950;145.008;2023-03-20T11:56:12;102368.56;;;16.09;43.58
54870;BME280;40756;-37.950;145.008;2023-03-20T11:58:53;102368.29;;;15.74;44.74
54870;BME280;40756;-37.950;145.008;2023-03-20T12:01:25;102362.79;;;15.70;44.89
54870;BME280;40756;-37.950;145.008;2023-03-20T12:04:03;102375.94;;;15.69;45.10
54870;BME280;40756;-37.950;145.008;2023-03-20T12:06:44;102372.25;;;15.51;45.04
54870;BME280;40756;-37.950;145.008;2023-03-20T12:09:25;102362.35;;;16.14;44.00
54870;BME280;40756;-37.950;145.008;2023-03-20T12:11:59;102365.54;;;15.37;46.08
54870;BME280;40756;-37.950;145.008;2023-03-20T12:14:36;102363.06;;;15.98;44.67
54870;BME280;40756;-37.950;145.008;2023-03-20T12:17:28;102372.37;;;15.90;44.86
54870;BME280;40756;-37.950;145.008;2023-03-20T12:20:04;102369.75;;;16.14;44.30
54870;BME280;40756;-37.950;145.008;2023-03-20T12:22:41;102367.11;;;16.43;44.14
54870;BME280;40756;-37.950;145.008;2023-03-20T12:25:21;102362.78;;;16.20;44.85
54870;BME280;40756;-37.950;145.008;2023-03-20T12:27:56;102357.79;;;16.71;44.28
54870;BME280;40756;-37.950;145.008;2023-03-20T12:30:38;102361.70;;;16.16;44.53
54870;BME280;40756;-37.950;145.008;2023-03-20T12:33:15;102359.59;;;16.41;44.54
54870;BME280;40756;-37.950;145.008;2023-03-20T12:35:50;102358.04;;;15.75;45.64
54870;BME280;40756;-37.950;145.008;2023-03-20T12:38:26;102350.04;;;16.34;44.71
54870;BME280;40756;-37.950;145.008;2023-03-20T12:41:06;102347.46;;;15.38;45.79
54870;BME280;40756;-37.950;145.008;2023-03-20T12:43:50;102335.36;;;15.29;46.59
54870;BME280;40756;-37.950;145.008;2023-03-20T12:46:29;102338.50;;;15.07;47.21
54870;BME280;40756;-37.950;145.008;2023-03-20T12:49:08;102338.41;;;15.22;46.83
54870;BME280;40756;-37.950;145.008;2023-03-20T12:51:45;102339.16;;;15.71;45.95